createdAt,value
2022-07-29T00:01:58.230Z,16.48
2022-07-29T00:05:00.356Z,16.42
2022-07-29T00:08:02.413Z,16.38
2022-07-29T00:11:05.084Z,16.32
2022-07-29T00:14:07.138Z,16.26
2022-07-29T00:17:09.237Z,16.22
2022-07-29T00:20:11.591Z,16.25
2022-07-29T00:23:13.827Z,16.27
2022-07-29T00:26:15.941Z,16.28
2022-07-29T00:29:33.646Z,16.23
2022-07-29T00:32:36.740Z,16.16
2022-07-29T00:35:44.936Z,16.11
2022-07-29T00:38:47.381Z,16.13
2022-07-29T00:41:50.036Z,16.18
2022-07-29T00:44:52.208Z,16.18
2022-07-29T00:47:54.311Z,16.11
2022-07-29T00:50:59.500Z,16.03
2022-07-29T00:54:01.641Z,15.96
2022-07-29T00:57:03.832Z,15.91
2022-07-29T01:04:30.977Z,15.77
2022-07-29T01:07:38.172Z,15.70
2022-07-29T01:10:42.175Z,15.64
2022-07-29T01:13:45.640Z,15.64
2022-07-29T01:16:56.595Z,15.57
2022-07-29T01:20:15.413Z,15.57
2022-07-29T01:23:42.502Z,15.55
2022-07-29T01:26:53.715Z,15.48
2022-07-29T01:30:00.872Z,15.45
2022-07-29T01:33:11.266Z,15.44
2022-07-29T01:36:17.606Z,15.42
2022-07-29T01:39:19.621Z,15.41
2022-07-29T01:42:25.222Z,15.42
2022-07-29T01:45:32.536Z,15.40
2022-07-29T01:48:46.995Z,15.37
2022-07-29T01:51:54.219Z,15.34
2022-07-29T01:54:59.949Z,15.29
2022-07-29T01:58:06.294Z,15.31
2022-07-29T02:01:11.009Z,15.33
2022-07-29T02:04:29.623Z,15.29
2022-07-29T02:07:37.863Z,15.23
2022-07-29T02:10:43.460Z,15.21
2022-07-29T02:13:47.657Z,15.21
2022-07-29T02:16:54.930Z,15.22
2022-07-29T02:20:00.419Z,15.18
2022-07-29T02:23:03.769Z,15.16
2022-07-29T02:26:07.478Z,15.11
2022-07-29T02:29:11.226Z,15.07
2022-07-29T02:32:16.471Z,15.03
2022-07-29T02:35:20.050Z,15.03
2022-07-29T02:38:42.544Z,15.07
2022-07-29T02:41:54.107Z,15.03
2022-07-29T02:44:57.098Z,15.00
2022-07-29T02:48:02.036Z,14.99
2022-07-29T02:51:13.383Z,14.93
2022-07-29T02:54:43.686Z,14.88
2022-07-29T02:57:55.711Z,14.87
2022-07-29T03:01:10.119Z,14.88
2022-07-29T03:04:14.678Z,14.85
2022-07-29T03:07:21.446Z,14.81
2022-07-29T03:10:25.042Z,14.77
2022-07-29T03:13:28.821Z,14.75
2022-07-29T03:16:31.322Z,14.74
2022-07-29T03:19:33.698Z,14.70
2022-07-29T03:22:44.801Z,14.69
2022-07-29T03:25:47.780Z,14.68
2022-07-29T03:28:50.004Z,14.67
2022-07-29T03:31:52.329Z,14.70
2022-07-29T03:34:54.331Z,14.74
2022-07-29T03:37:56.493Z,14.72
2022-07-29T03:41:03.017Z,14.73
2022-07-29T03:44:08.076Z,14.70
2022-07-29T03:47:12.323Z,14.68
2022-07-29T03:50:16.545Z,14.67
2022-07-29T03:53:19.268Z,14.73
2022-07-29T03:56:24.801Z,14.77
2022-07-29T03:59:28.324Z,14.83
2022-07-29T04:02:31.022Z,14.84
2022-07-29T04:05:33.204Z,14.84
2022-07-29T04:08:36.118Z,14.85
2022-07-29T04:12:02.496Z,14.88
2022-07-29T04:15:06.177Z,14.88
2022-07-29T04:18:08.305Z,14.91
2022-07-29T04:21:10.333Z,14.96
2022-07-29T04:24:12.651Z,14.99
2022-07-29T04:27:14.860Z,15.05
2022-07-29T04:30:16.833Z,15.08
2022-07-29T04:33:18.926Z,15.11
2022-07-29T04:36:29.260Z,15.12
2022-07-29T04:39:32.090Z,15.17
2022-07-29T04:42:34.070Z,15.25
2022-07-29T04:45:47.104Z,15.35
2022-07-29T04:48:49.542Z,15.38
2022-07-29T04:51:51.607Z,15.49
2022-07-29T04:54:53.702Z,15.61
2022-07-29T04:57:55.784Z,15.79
2022-07-29T05:00:57.936Z,15.96
2022-07-29T05:04:00.810Z,16.13
2022-07-29T05:07:03.055Z,16.23
2022-07-29T05:10:05.690Z,16.42
2022-07-29T05:13:08.834Z,16.64
2022-07-29T05:16:10.977Z,16.83
2022-07-29T05:19:14.529Z,17.00
2022-07-29T05:22:16.846Z,17.13
2022-07-29T05:25:19.019Z,17.28
2022-07-29T05:28:21.129Z,17.46
2022-07-29T05:31:23.243Z,17.65
2022-07-29T05:34:26.231Z,17.84
2022-07-29T05:37:28.337Z,18.07
2022-07-29T05:40:30.610Z,18.32
2022-07-29T05:43:33.053Z,18.54
2022-07-29T05:46:35.160Z,18.70
2022-07-29T05:49:38.013Z,18.86
2022-07-29T05:52:40.339Z,19.00
2022-07-29T05:55:42.395Z,19.15
2022-07-29T05:58:44.525Z,19.28
2022-07-29T06:01:49.758Z,19.37
2022-07-29T06:04:51.944Z,19.42
2022-07-29T06:07:54.432Z,19.57
2022-07-29T06:10:56.487Z,19.76
2022-07-29T06:13:58.536Z,19.84
2022-07-29T06:17:00.614Z,19.93
2022-07-29T06:20:04.045Z,20.14
2022-07-29T06:23:06.131Z,20.25
2022-07-29T06:26:08.235Z,20.32
2022-07-29T06:29:11.869Z,20.36
2022-07-29T06:32:13.979Z,20.35
2022-07-29T06:38:40.392Z,20.61
2022-07-29T06:41:51.635Z,20.60
2022-07-29T06:44:53.870Z,20.72
2022-07-29T06:47:55.964Z,20.82
2022-07-29T06:50:58.321Z,20.81
2022-07-29T06:54:12.827Z,20.84
2022-07-29T06:57:15.286Z,20.85
2022-07-29T07:00:17.519Z,21.02
2022-07-29T07:03:20.592Z,21.15
2022-07-29T07:06:22.733Z,21.25
2022-07-29T07:09:24.734Z,21.55
2022-07-29T07:12:42.097Z,21.93
2022-07-29T07:15:45.289Z,22.18
2022-07-29T07:18:47.368Z,22.38
2022-07-29T07:21:49.454Z,22.36
2022-07-29T07:24:51.665Z,22.27
2022-07-29T07:27:53.816Z,22.38
2022-07-29T07:30:56.194Z,22.70
2022-07-29T07:33:58.449Z,23.34
2022-07-29T07:37:00.567Z,24.18
2022-07-29T07:40:04.367Z,24.93
2022-07-29T07:43:06.467Z,25.73
2022-07-29T07:46:08.645Z,26.53
2022-07-29T07:49:11.199Z,27.10
2022-07-29T07:52:13.323Z,27.36
2022-07-29T07:55:15.575Z,27.14
2022-07-29T07:58:17.618Z,26.81
2022-07-29T08:01:22.368Z,26.41
2022-07-29T08:04:28.363Z,25.94
2022-07-29T08:07:31.416Z,25.85
2022-07-29T08:10:52.863Z,26.60
2022-07-29T08:13:54.863Z,27.36
2022-07-29T08:16:57.098Z,27.57
2022-07-29T08:19:59.132Z,27.70
2022-07-29T08:23:01.274Z,28.09
2022-07-29T08:26:03.297Z,28.70
2022-07-29T08:29:05.977Z,28.71
2022-07-29T08:32:08.280Z,28.69
2022-07-29T08:35:10.821Z,28.71
2022-07-29T08:38:12.917Z,28.84
2022-07-29T08:41:14.947Z,29.19
2022-07-29T08:44:18.420Z,29.52
2022-07-29T08:47:31.067Z,29.80
2022-07-29T08:50:36.302Z,29.87
2022-07-29T08:53:39.323Z,30.18
2022-07-29T08:56:42.200Z,30.59
2022-07-29T08:59:47.224Z,30.27
2022-07-29T09:02:54.938Z,30.18
2022-07-29T09:05:57.294Z,29.99
2022-07-29T09:09:00.719Z,29.89
2022-07-29T09:12:02.954Z,29.69
2022-07-29T09:15:05.250Z,29.52
2022-07-29T09:18:07.425Z,29.27
2022-07-29T09:21:31.184Z,29.07
2022-07-29T09:24:36.610Z,28.95
2022-07-29T09:27:38.849Z,28.72
2022-07-29T09:30:55.603Z,28.49
2022-07-29T09:33:59.540Z,28.36
2022-07-29T09:37:01.758Z,28.29
2022-07-29T09:40:13.378Z,28.51
2022-07-29T09:43:15.573Z,29.42
2022-07-29T09:46:17.714Z,29.47
2022-07-29T09:49:19.799Z,29.70
2022-07-29T09:52:22.693Z,29.95
2022-07-29T09:55:25.201Z,30.30
2022-07-29T09:58:28.496Z,31.22
2022-07-29T10:01:30.681Z,30.59
2022-07-29T10:04:43.809Z,30.49
2022-07-29T10:07:54.053Z,30.17
2022-07-29T10:11:11.101Z,30.27
2022-07-29T10:14:13.246Z,30.70
2022-07-29T10:17:16.792Z,31.36
2022-07-29T10:20:19.297Z,31.59
2022-07-29T10:23:21.995Z,30.48
2022-07-29T10:26:24.705Z,30.02
2022-07-29T10:29:27.646Z,30.09
2022-07-29T10:32:54.114Z,30.16
2022-07-29T10:36:18.595Z,30.10
2022-07-29T10:39:50.084Z,30.37
2022-07-29T10:42:54.810Z,30.48
2022-07-29T10:45:59.867Z,30.38
2022-07-29T10:52:53.889Z,29.91
2022-07-29T10:55:56.470Z,30.02
2022-07-29T10:59:22.715Z,30.18
2022-07-29T11:02:54.465Z,30.45
2022-07-29T11:09:35.122Z,30.02
2022-07-29T11:12:40.343Z,29.84
2022-07-29T11:15:56.037Z,30.23
2022-07-29T11:19:13.769Z,30.59
2022-07-29T11:22:35.742Z,31.05
2022-07-29T11:25:50.237Z,31.44
2022-07-29T11:29:07.374Z,31.71
2022-07-29T11:32:22.884Z,31.62
2022-07-29T11:35:37.636Z,31.08
2022-07-29T11:38:43.154Z,30.63
2022-07-29T11:41:45.289Z,30.43
2022-07-29T11:45:41.556Z,30.44
2022-07-29T11:48:32.391Z,31.27
2022-07-29T11:51:38.361Z,31.87
2022-07-29T11:54:58.291Z,31.59
2022-07-29T11:58:03.999Z,31.99
2022-07-29T12:01:07.547Z,32.04
2022-07-29T12:04:09.610Z,31.34
2022-07-29T12:07:15.694Z,30.83
2022-07-29T12:10:20.007Z,30.91
2022-07-29T12:13:41.150Z,30.99
2022-07-29T12:16:43.301Z,30.93
2022-07-29T12:19:46.438Z,30.81
2022-07-29T12:22:50.460Z,31.24
2022-07-29T12:25:53.310Z,32.12
2022-07-29T12:28:56.245Z,32.63
2022-07-29T12:31:59.893Z,32.93
2022-07-29T12:35:11.298Z,32.33
2022-07-29T12:38:14.488Z,31.28
2022-07-29T12:41:16.750Z,30.89
2022-07-29T12:44:18.865Z,31.03
2022-07-29T12:47:21.899Z,30.71
2022-07-29T12:50:26.405Z,30.03
2022-07-29T12:53:29.454Z,29.71
2022-07-29T12:56:47.065Z,29.60
2022-07-29T13:00:12.206Z,29.36
2022-07-29T13:03:14.339Z,28.98
2022-07-29T13:06:39.572Z,28.64
2022-07-29T13:09:46.682Z,28.31
2022-07-29T13:13:07.440Z,28.04
2022-07-29T13:16:09.541Z,27.57
2022-07-29T13:19:13.781Z,27.09
2022-07-29T13:22:18.380Z,26.51
2022-07-29T13:25:32.995Z,26.23
2022-07-29T13:28:35.480Z,26.12
2022-07-29T13:31:37.542Z,26.05
2022-07-29T13:34:39.761Z,25.97
2022-07-29T13:37:41.952Z,25.69
2022-07-29T13:40:44.196Z,25.55
2022-07-29T13:43:46.825Z,25.43
2022-07-29T13:46:52.415Z,25.31
2022-07-29T13:49:54.851Z,25.04
2022-07-29T13:52:56.949Z,24.63
2022-07-29T13:55:58.992Z,24.40
2022-07-29T13:59:01.359Z,23.92
2022-07-29T14:02:04.133Z,23.53
2022-07-29T14:05:08.824Z,23.25
2022-07-29T14:08:11.061Z,23.01
2022-07-29T14:11:13.175Z,22.96
2022-07-29T14:14:15.253Z,22.84
2022-07-29T14:17:17.439Z,22.68
2022-07-29T14:20:19.660Z,22.42
2022-07-29T14:23:21.781Z,22.17
2022-07-29T14:26:24.249Z,22.08
2022-07-29T14:29:37.721Z,22.06
2022-07-29T14:32:40.393Z,21.89
2022-07-29T14:35:42.517Z,21.80
2022-07-29T14:38:44.713Z,21.95
2022-07-29T14:41:46.778Z,22.19
2022-07-29T14:44:50.505Z,22.27
2022-07-29T14:47:56.507Z,22.30
2022-07-29T14:51:04.409Z,22.43
2022-07-29T14:54:06.962Z,22.65
2022-07-29T14:57:09.880Z,22.57
2022-07-29T15:00:12.843Z,22.70
2022-07-29T15:03:24.274Z,22.87
2022-07-29T15:06:27.997Z,22.98
2022-07-29T15:09:30.019Z,23.05
2022-07-29T15:12:32.772Z,22.96
2022-07-29T15:15:34.800Z,22.90
2022-07-29T15:18:38.861Z,22.84
2022-07-29T15:21:41.699Z,22.67
2022-07-29T15:24:50.435Z,22.56
2022-07-29T15:27:54.702Z,22.49
2022-07-29T15:30:58.665Z,22.44
2022-07-29T15:34:05.131Z,22.43
2022-07-29T15:37:08.761Z,22.42
2022-07-29T15:40:11.527Z,22.40
2022-07-29T15:43:13.820Z,22.38
2022-07-29T15:46:36.041Z,22.46
2022-07-29T15:49:47.111Z,22.54
2022-07-29T15:52:52.045Z,22.61
2022-07-29T15:55:54.099Z,22.67
2022-07-29T15:58:56.506Z,22.74
2022-07-29T16:01:59.482Z,22.77
2022-07-29T16:05:01.586Z,22.79
2022-07-29T16:08:03.639Z,22.75
2022-07-29T16:11:05.701Z,22.76
2022-07-29T16:14:08.037Z,23.28
2022-07-29T16:17:14.343Z,25.82
2022-07-29T16:20:17.304Z,27.82
2022-07-29T16:23:19.673Z,27.56
2022-07-29T16:26:21.725Z,26.62
2022-07-29T16:29:23.846Z,25.85
2022-07-29T16:32:25.979Z,25.37
2022-07-29T16:35:39.584Z,25.00
2022-07-29T16:38:47.508Z,24.63
2022-07-29T16:41:49.899Z,24.36
2022-07-29T16:44:51.898Z,24.07
2022-07-29T16:47:59.884Z,23.96
2022-07-29T16:51:02.609Z,23.85
2022-07-29T16:54:04.650Z,23.76
2022-07-29T16:57:06.850Z,23.61
2022-07-29T17:00:09.946Z,23.45
2022-07-29T17:03:12.805Z,23.26
2022-07-29T17:06:15.688Z,22.84
2022-07-29T17:09:17.792Z,22.64
2022-07-29T17:12:19.976Z,22.49
2022-07-29T17:15:22.244Z,22.35
2022-07-29T17:18:27.861Z,22.04
2022-07-29T17:21:31.101Z,21.85
2022-07-29T17:24:33.749Z,21.67
2022-07-29T17:27:36.855Z,21.55
2022-07-29T17:30:38.872Z,21.46
2022-07-29T17:33:40.854Z,21.45
2022-07-29T17:36:42.934Z,21.40
2022-07-29T17:39:45.220Z,21.28
2022-07-29T17:42:47.463Z,21.13
2022-07-29T17:45:50.898Z,20.95
2022-07-29T17:48:57.267Z,20.86
2022-07-29T17:52:01.085Z,20.82
2022-07-29T17:55:03.346Z,20.67
2022-07-29T17:58:08.640Z,20.46
2022-07-29T18:01:11.143Z,20.31
2022-07-29T18:04:13.332Z,20.28
2022-07-29T18:07:15.345Z,20.20
2022-07-29T18:10:17.415Z,20.06
2022-07-29T18:13:19.669Z,19.90
2022-07-29T18:16:21.803Z,19.83
2022-07-29T18:19:23.818Z,19.67
2022-07-29T18:22:25.913Z,19.44
2022-07-29T18:25:29.056Z,19.32
2022-07-29T18:28:32.977Z,19.29
2022-07-29T18:31:35.116Z,19.24
2022-07-29T18:34:37.249Z,19.12
2022-07-29T18:38:00.894Z,19.01
2022-07-29T18:41:01.389Z,18.92
2022-07-29T18:44:03.452Z,18.96
2022-07-29T18:47:06.581Z,18.93
2022-07-29T18:50:11.605Z,18.88
2022-07-29T18:53:13.646Z,18.77
2022-07-29T18:56:15.784Z,18.69
2022-07-29T18:59:20.043Z,18.57
2022-07-29T19:02:22.926Z,18.45
2022-07-29T19:05:25.322Z,18.39
2022-07-29T19:08:27.449Z,18.32
2022-07-29T19:11:29.497Z,18.24
2022-07-29T19:14:31.903Z,18.21
2022-07-29T19:17:33.912Z,18.17
2022-07-29T19:20:36.189Z,18.13
2022-07-29T19:24:01.861Z,18.08
2022-07-29T19:27:00.584Z,17.96
2022-07-29T19:30:05.173Z,17.88
2022-07-29T19:33:07.552Z,17.82
2022-07-29T19:36:09.816Z,17.79
2022-07-29T19:39:12.049Z,17.75
2022-07-29T19:42:14.102Z,17.70
2022-07-29T19:45:16.112Z,17.67
2022-07-29T19:48:18.201Z,17.69
2022-07-29T19:51:20.368Z,17.68
2022-07-29T19:54:22.481Z,17.70
2022-07-29T19:57:24.551Z,17.67
2022-07-29T20:00:28.302Z,17.67
2022-07-29T20:03:33.142Z,17.60
2022-07-29T20:06:35.259Z,17.49
2022-07-29T20:09:37.567Z,17.40
2022-07-29T20:12:39.659Z,17.32
2022-07-29T20:15:41.939Z,17.20
2022-07-29T20:18:44.026Z,17.15
2022-07-29T20:21:46.092Z,17.12
2022-07-29T20:24:48.348Z,17.12
2022-07-29T20:27:52.689Z,17.10
2022-07-29T20:30:54.783Z,17.04
2022-07-29T20:33:56.800Z,17.00
2022-07-29T20:36:58.977Z,17.02
2022-07-29T20:40:03.590Z,16.98
2022-07-29T20:43:06.205Z,16.95
2022-07-29T20:46:08.429Z,16.96
2022-07-29T20:49:10.593Z,16.90
2022-07-29T20:52:12.926Z,16.85
2022-07-29T20:55:14.976Z,16.79
2022-07-29T20:58:18.971Z,16.72
2022-07-29T21:01:21.135Z,16.65
2022-07-29T21:04:23.200Z,16.64
2022-07-29T21:07:32.955Z,16.63
2022-07-29T21:10:35.380Z,16.58
2022-07-29T21:13:40.282Z,16.57
2022-07-29T21:16:42.345Z,16.56
2022-07-29T21:19:44.517Z,16.53
2022-07-29T21:22:46.560Z,16.55
2022-07-29T21:25:48.671Z,16.56
2022-07-29T21:28:50.721Z,16.54
2022-07-29T21:31:52.779Z,16.51
2022-07-29T21:34:54.898Z,16.46
2022-07-29T21:37:56.983Z,16.45
2022-07-29T21:40:59.590Z,16.40
2022-07-29T21:44:01.654Z,16.35
2022-07-29T21:47:05.852Z,16.32
2022-07-29T21:50:08.305Z,16.33
2022-07-29T21:53:13.854Z,16.29
2022-07-29T21:56:18.136Z,16.26
2022-07-29T21:59:20.237Z,16.31
2022-07-29T22:02:22.323Z,16.37
2022-07-29T22:05:24.336Z,16.39
2022-07-29T22:08:26.442Z,16.43
2022-07-29T22:11:28.578Z,16.37
2022-07-29T22:14:30.599Z,16.31
2022-07-29T22:17:33.051Z,16.26
2022-07-29T22:20:35.131Z,16.23
2022-07-29T22:23:37.185Z,16.24
2022-07-29T22:26:39.185Z,16.21
2022-07-29T22:29:41.333Z,16.16
2022-07-29T22:32:43.664Z,16.14
2022-07-29T22:35:48.599Z,16.16
2022-07-29T22:38:52.057Z,16.14
2022-07-29T22:41:54.524Z,16.16
2022-07-29T22:44:56.713Z,16.17
2022-07-29T22:47:59.166Z,16.15
2022-07-29T22:51:01.614Z,16.14
2022-07-29T22:54:04.603Z,16.14
2022-07-29T22:57:06.870Z,16.16
2022-07-29T23:00:09.732Z,16.15
2022-07-29T23:03:11.804Z,16.18
2022-07-29T23:06:14.192Z,16.21
2022-07-29T23:09:16.588Z,16.24
2022-07-29T23:12:18.595Z,16.29
2022-07-29T23:15:20.682Z,16.34
2022-07-29T23:18:22.867Z,16.39
2022-07-29T23:21:26.433Z,16.39
2022-07-29T23:24:28.526Z,16.45
2022-07-29T23:27:30.675Z,16.49
2022-07-29T23:30:32.900Z,16.51
2022-07-29T23:33:34.923Z,16.52
2022-07-29T23:36:37.001Z,16.81
2022-07-29T23:39:39.125Z,17.08
2022-07-29T23:42:42.430Z,17.28
2022-07-29T23:45:45.224Z,17.43
2022-07-29T23:48:50.988Z,17.50
2022-07-29T23:51:53.028Z,17.59
2022-07-29T23:54:55.210Z,17.63
2022-07-29T23:58:17.210Z,17.63
